Time;durP1;ratioP1;P1;durP2;ratioP2;P2;SDS_P1;SDS_P2;PMS_P1;PMS_P2;Temp;Humidity;BMP_temperature;BMP_pressure;BME280_temperature;BME280_humidity;BME280_pressure;Samples;Min_cycle;Max_cycle;Signal;HPM_P1;HPM_P2
2021/06/07 00:01:40;;;;;;;13.73;10.15;;;;;;;20.48;100.00;101164.25;4924054;29;20043;-75
2021/06/07 00:04:27;;;;;;;12.73;10.43;;;;;;;20.49;100.00;101160.63;4923154;29;20074;-75
2021/06/07 00:07:14;;;;;;;11.38;9.63;;;;;;;20.63;100.00;101158.16;4920539;29;20028;-75
2021/06/07 00:10:00;;;;;;;15.85;9.63;;;;;;;20.63;100.00;101155.47;4920433;29;20403;-75
2021/06/07 00:12:46;;;;;;;12.27;9.82;;;;;;;20.50;100.00;101158.84;4905439;29;20039;-75
2021/06/07 00:15:33;;;;;;;14.05;10.35;;;;;;;20.48;100.00;101158.91;4919476;29;20028;-75
2021/06/07 00:18:19;;;;;;;16.88;11.23;;;;;;;20.12;100.00;101151.91;4918934;29;20054;-75
2021/06/07 00:21:15;;;;;;;13.85;11.25;;;;;;;20.36;100.00;101159.53;4918596;29;20114;-75
2021/06/07 00:24:01;;;;;;;15.55;12.00;;;;;;;20.52;100.00;101157.81;4918500;29;20032;-75
2021/06/07 00:26:47;;;;;;;14.90;10.93;;;;;;;20.44;100.00;101154.69;4918668;29;20028;-75
2021/06/07 00:29:33;;;;;;;13.10;10.80;;;;;;;20.21;100.00;101149.66;4917808;29;20330;-76
2021/06/07 00:32:19;;;;;;;16.25;12.23;;;;;;;20.31;100.00;101145.63;4918805;29;20035;-75
2021/06/07 00:35:06;;;;;;;17.88;12.30;;;;;;;20.32;100.00;101142.00;4905184;29;20095;-75
2021/06/07 00:37:52;;;;;;;13.80;10.77;;;;;;;20.19;100.00;101151.56;4904861;29;20028;-76
2021/06/07 00:40:39;;;;;;;12.32;10.98;;;;;;;19.94;100.00;101144.81;4918283;29;20038;-77
2021/06/07 00:43:25;;;;;;;12.65;10.95;;;;;;;20.37;100.00;101158.59;4917989;29;20084;-76
2021/06/07 00:46:11;;;;;;;17.27;13.23;;;;;;;20.36;100.00;101153.34;4919327;29;20191;-76
2021/06/07 00:48:57;;;;;;;16.85;13.98;;;;;;;20.05;100.00;101153.16;4905327;29;20060;-76
2021/06/07 00:51:46;;;;;;;19.27;13.80;;;;;;;20.22;100.00;101145.22;4919180;29;20362;-76
2021/06/07 00:54:31;;;;;;;18.65;13.35;;;;;;;20.00;100.00;101156.03;4918073;29;20103;-76
2021/06/07 00:57:17;;;;;;;17.15;13.57;;;;;;;20.00;100.00;101161.34;4918313;29;20052;-75
2021/06/07 01:00:04;;;;;;;19.17;14.40;;;;;;;19.91;100.00;101160.91;4917400;29;20420;-76
2021/06/07 01:02:51;;;;;;;14.95;12.90;;;;;;;19.80;100.00;101150.81;4919034;29;20032;-76
2021/06/07 01:05:37;;;;;;;16.92;13.43;;;;;;;19.82;100.00;101148.94;4905351;29;20429;-76
2021/06/07 01:08:24;;;;;;;18.00;13.55;;;;;;;19.97;100.00;101150.00;4917570;29;20028;-75
2021/06/07 01:11:11;;;;;;;15.68;13.52;;;;;;;19.61;100.00;101149.13;4917486;29;20028;-75
2021/06/07 01:13:57;;;;;;;20.95;14.02;;;;;;;19.46;100.00;101158.69;4917017;29;20028;-75
2021/06/07 01:16:42;;;;;;;16.27;13.38;;;;;;;19.56;100.00;101151.97;4917727;29;20031;-75
2021/06/07 01:19:28;;;;;;;15.77;14.07;;;;;;;19.68;100.00;101148.75;4904898;29;20028;-75
2021/06/07 01:22:14;;;;;;;17.08;13.77;;;;;;;19.56;100.00;101149.31;4918268;29;20028;-75
2021/06/07 01:25:01;;;;;;;15.07;13.48;;;;;;;19.83;100.00;101148.00;4917676;29;20028;-76
2021/06/07 01:27:47;;;;;;;17.80;13.43;;;;;;;19.77;100.00;101150.09;4917657;29;20024;-76
2021/06/07 01:30:37;;;;;;;17.90;13.32;;;;;;;19.80;100.00;101155.28;4904610;29;20034;-76
2021/06/07 01:33:25;;;;;;;14.88;13.27;;;;;;;19.56;100.00;101157.28;4918422;29;20028;-76
2021/06/07 01:36:11;;;;;;;16.60;13.30;;;;;;;19.60;100.00;101150.06;4917497;29;20377;-76
2021/06/07 01:38:56;;;;;;;15.75;13.20;;;;;;;19.58;100.00;101142.16;4918733;29;20036;-76
2021/06/07 01:41:42;;;;;;;17.73;12.70;;;;;;;19.35;100.00;101147.69;4917756;29;20327;-76
2021/06/07 01:44:28;;;;;;;15.48;12.32;;;;;;;19.78;100.00;101149.16;4920886;29;20048;-76
2021/06/07 01:47:14;;;;;;;15.75;13.30;;;;;;;19.53;100.00;101160.09;4921183;29;20039;-76
2021/06/07 01:50:00;;;;;;;16.08;13.25;;;;;;;19.19;100.00;101155.47;4921041;29;20031;-76
2021/06/07 01:52:48;;;;;;;20.88;13.55;;;;;;;18.97;100.00;101156.50;4921182;29;20028;-76
2021/06/07 01:55:37;;;;;;;17.33;13.73;;;;;;;18.75;100.00;101158.38;4921561;29;20369;-75
2021/06/07 01:58:24;;;;;;;18.65;14.90;;;;;;;18.67;100.00;101158.72;4921908;29;20028;-75
2021/06/07 02:01:19;;;;;;;19.63;15.90;;;;;;;19.02;100.00;101151.84;4920442;29;20028;-76
2021/06/07 02:04:05;;;;;;;20.50;16.38;;;;;;;18.85;100.00;101154.41;4921490;29;20044;-76
2021/06/07 02:06:51;;;;;;;19.67;15.73;;;;;;;18.83;100.00;101153.59;4921462;29;20517;-76
2021/06/07 02:09:40;;;;;;;21.38;15.18;;;;;;;18.87;100.00;101160.50;4920408;29;20039;-76
2021/06/07 02:12:26;;;;;;;22.85;15.82;;;;;;;18.74;100.00;101159.31;4921291;29;20034;-76
2021/06/07 02:15:13;;;;;;;23.10;16.05;;;;;;;18.42;100.00;101159.84;4920184;29;20115;-76
2021/06/07 02:18:01;;;;;;;24.73;16.00;;;;;;;18.88;100.00;101170.19;4920215;29;20385;-76
2021/06/07 02:20:47;;;;;;;21.17;16.58;;;;;;;19.02;100.00;101163.31;4920437;29;20112;-75
2021/06/07 02:23:33;;;;;;;22.52;16.50;;;;;;;18.63;100.00;101161.56;4907767;29;20067;-76
2021/06/07 02:26:20;;;;;;;19.30;16.35;;;;;;;18.64;100.00;101150.88;4920176;29;20032;-76
2021/06/07 02:29:09;;;;;;;21.60;16.02;;;;;;;18.50;100.00;101155.06;4908076;29;20181;-76
2021/06/07 02:31:55;;;;;;;19.33;15.68;;;;;;;18.64;100.00;101158.84;4919685;29;20373;-75
2021/06/07 02:34:40;;;;;;;22.95;16.10;;;;;;;18.71;100.00;101156.78;4920121;29;20477;-75
2021/06/07 02:37:26;;;;;;;19.35;14.98;;;;;;;18.50;100.00;101155.06;4920896;29;20027;-75
2021/06/07 02:40:14;;;;;;;19.33;14.50;;;;;;;18.79;100.00;101163.50;4920278;29;20028;-76
2021/06/07 02:43:01;;;;;;;19.05;15.00;;;;;;;18.58;100.00;101159.09;4920054;29;20056;-76
2021/06/07 02:45:48;;;;;;;17.15;15.25;;;;;;;18.70;100.00;101161.22;4907279;29;20046;-76
2021/06/07 02:48:35;;;;;;;19.50;15.15;;;;;;;18.53;100.00;101166.41;4920276;29;20031;-76
2021/06/07 02:51:20;;;;;;;16.55;14.23;;;;;;;18.79;100.00;101165.28;4921031;29;20035;-76
2021/06/07 02:54:08;;;;;;;16.83;14.95;;;;;;;18.60;100.00;101172.31;4918983;29;20131;-76
2021/06/07 02:56:54;;;;;;;17.20;14.07;;;;;;;18.64;100.00;101168.59;4920553;29;20446;-76
2021/06/07 02:59:39;;;;;;;19.23;15.13;;;;;;;18.58;100.00;101172.38;4919625;29;20032;-75
2021/06/07 03:02:25;;;;;;;18.08;14.68;;;;;;;18.74;100.00;101173.44;4907125;29;20114;-75
2021/06/07 03:05:12;;;;;;;19.95;13.98;;;;;;;18.56;100.00;101173.38;4907656;29;20032;-75
2021/06/07 03:07:58;;;;;;;21.98;14.50;;;;;;;18.58;100.00;101174.19;4919157;29;20107;-75
2021/06/07 03:10:48;;;;;;;18.63;15.18;;;;;;;18.77;100.00;101180.44;4907302;29;20438;-76
2021/06/07 03:13:34;;;;;;;17.23;14.73;;;;;;;18.99;100.00;101181.19;4919501;29;20111;-75
2021/06/07 03:16:20;;;;;;;19.98;14.32;;;;;;;18.74;100.00;101175.25;4907097;29;20457;-76
2021/06/07 03:19:05;;;;;;;23.90;16.20;;;;;;;18.13;100.00;101181.38;4918817;29;20028;-76
2021/06/07 03:21:51;;;;;;;19.30;16.95;;;;;;;18.49;100.00;101174.59;4919975;29;20036;-76
2021/06/07 03:24:37;;;;;;;25.08;17.35;;;;;;;18.33;100.00;101176.97;4906868;29;20369;-76
2021/06/07 03:27:23;;;;;;;19.42;16.13;;;;;;;18.82;100.00;101181.09;4919073;29;20115;-76
2021/06/07 03:30:10;;;;;;;19.60;16.27;;;;;;;18.73;100.00;101181.50;4905848;29;20469;-76
2021/06/07 03:32:57;;;;;;;17.00;15.20;;;;;;;18.91;100.00;101191.28;4918905;29;20127;-76
2021/06/07 03:35:44;;;;;;;21.08;15.73;;;;;;;19.05;100.00;101188.91;4906775;29;20413;-76
2021/06/07 03:38:31;;;;;;;22.17;15.57;;;;;;;18.92;100.00;101185.03;4919530;29;20040;-76
2021/06/07 03:41:17;;;;;;;23.00;16.55;;;;;;;19.13;100.00;101181.47;4919760;29;20028;-76
2021/06/07 03:44:03;;;;;;;19.30;15.40;;;;;;;19.29;100.00;101182.50;4918180;29;20056;-76
2021/06/07 03:46:49;;;;;;;20.88;15.18;;;;;;;19.41;100.00;101178.44;4919643;29;20039;-76
2021/06/07 03:49:35;;;;;;;19.25;14.55;;;;;;;19.27;100.00;101186.16;4906525;29;20107;-76
2021/06/07 03:52:21;;;;;;;18.60;14.07;;;;;;;19.62;100.00;101178.28;4906424;29;20111;-76
2021/06/07 03:55:08;;;;;;;18.98;14.68;;;;;;;19.29;100.00;101181.66;4918355;29;20040;-74
2021/06/07 03:57:56;;;;;;;18.45;14.13;;;;;;;19.35;100.00;101184.88;4918529;29;20072;-75
2021/06/07 04:00:41;;;;;;;20.52;14.27;;;;;;;19.54;100.00;101188.41;4906135;29;20036;-76
2021/06/07 04:03:27;;;;;;;35.65;14.95;;;;;;;19.73;100.00;101170.63;4906597;29;20028;-76
2021/06/07 04:06:15;;;;;;;21.10;13.05;;;;;;;19.81;100.00;101178.28;4919034;29;20028;-76
2021/06/07 04:09:02;;;;;;;19.00;13.15;;;;;;;19.59;100.00;101181.09;4905894;29;20395;-76
2021/06/07 04:11:49;;;;;;;15.85;13.38;;;;;;;20.05;100.00;101177.09;4905657;29;20042;-76
2021/06/07 04:14:36;;;;;;;15.35;13.70;;;;;;;19.96;100.00;101174.84;4905864;29;20028;-75
2021/06/07 04:17:22;;;;;;;19.25;14.73;;;;;;;19.91;100.00;101183.06;4919189;29;20377;-75
2021/06/07 04:20:11;;;;;;;19.08;14.23;;;;;;;20.16;100.00;101183.63;4917998;29;20020;-75
2021/06/07 04:22:58;;;;;;;22.63;16.17;;;;;;;20.04;100.00;101183.31;4906093;29;20453;-75
2021/06/07 04:25:44;;;;;;;23.42;20.40;;;;;;;20.17;100.00;101184.50;4918868;29;20059;-75
2021/06/07 04:28:29;;;;;;;30.92;25.55;;;;;;;20.36;100.00;101185.28;4918035;29;20028;-75
2021/06/07 04:31:15;;;;;;;26.15;21.20;;;;;;;20.29;100.00;101192.72;4918095;29;20036;-76
2021/06/07 04:34:02;;;;;;;22.45;17.60;;;;;;;20.17;100.00;101193.31;4905437;29;20024;-77
2021/06/07 04:36:47;;;;;;;22.52;15.20;;;;;;;20.36;100.00;101186.16;4904699;29;20036;-75
2021/06/07 04:39:33;;;;;;;21.60;14.85;;;;;;;20.56;100.00;101196.66;4917933;29;20028;-76
2021/06/07 04:42:19;;;;;;;21.02;14.07;;;;;;;20.67;100.00;101201.44;4917633;29;20075;-76
2021/06/07 04:45:07;;;;;;;20.33;13.45;;;;;;;20.66;100.00;101199.72;4905213;29;20028;-74
2021/06/07 04:47:52;;;;;;;18.92;14.23;;;;;;;21.19;100.00;101198.69;4917211;29;20024;-76
2021/06/07 04:50:39;;;;;;;19.50;14.15;;;;;;;21.12;100.00;101199.06;4905128;29;20123;-75
2021/06/07 04:53:25;;;;;;;26.42;15.18;;;;;;;20.84;100.00;101204.97;4919186;29;20521;-75
2021/06/07 04:56:11;;;;;;;22.38;15.75;;;;;;;20.75;100.00;101205.44;4917676;29;20388;-75
2021/06/07 04:58:57;;;;;;;23.52;14.48;;;;;;;20.69;100.00;101202.25;4905367;29;20135;-76
2021/06/07 05:01:42;;;;;;;22.73;16.73;;;;;;;20.79;100.00;101201.69;4916936;29;20043;-76
2021/06/07 05:04:28;;;;;;;23.10;15.25;;;;;;;21.00;100.00;101210.38;4904327;29;20373;-75
2021/06/07 05:07:14;;;;;;;26.05;15.35;;;;;;;20.79;100.00;101211.47;4918144;29;20458;-76
2021/06/07 05:10:00;;;;;;;21.75;15.68;;;;;;;21.01;100.00;101215.63;4917646;29;20058;-76
2021/06/07 05:12:45;;;;;;;21.65;16.17;;;;;;;21.12;100.00;101215.94;4904498;29;20021;-76
2021/06/07 05:15:33;;;;;;;21.02;16.30;;;;;;;21.12;100.00;101221.25;4917147;29;20110;-76
2021/06/07 05:18:20;;;;;;;20.42;16.65;;;;;;;20.90;100.00;101225.94;4921864;29;20032;-75
2021/06/07 05:21:05;;;;;;;18.75;15.50;;;;;;;21.01;100.00;101220.13;4921209;29;20104;-75
2021/06/07 05:23:51;;;;;;;23.58;15.70;;;;;;;21.04;100.00;101222.59;4921935;29;20047;-75
2021/06/07 05:26:37;;;;;;;24.10;15.65;;;;;;;21.09;100.00;101226.75;4908836;29;20418;-75
2021/06/07 05:29:23;;;;;;;17.70;14.73;;;;;;;21.37;100.00;101227.00;4921420;29;20036;-75
2021/06/07 05:32:08;;;;;;;19.88;13.63;;;;;;;21.44;100.00;101228.41;4921213;29;20112;-76
2021/06/07 05:34:54;;;;;;;18.77;12.90;;;;;;;21.68;100.00;101237.75;4921100;29;20168;-76
2021/06/07 05:37:41;;;;;;;20.60;13.20;;;;;;;21.80;100.00;101236.22;4920246;29;20068;-74
2021/06/07 05:40:28;;;;;;;19.63;12.88;;;;;;;22.31;100.00;101228.78;4908461;29;20127;-76
2021/06/07 05:43:17;;;;;;;15.57;11.20;;;;;;;22.86;100.00;101235.34;4922932;29;20040;-75
2021/06/07 05:46:03;;;;;;;25.65;12.30;;;;;;;21.94;100.00;101237.19;4919351;29;20032;-75
2021/06/07 05:48:49;;;;;;;21.90;13.15;;;;;;;22.45;100.00;101233.34;4928485;29;20057;-76
2021/06/07 05:51:35;;;;;;;20.13;12.15;;;;;;;22.70;100.00;101225.63;4924892;29;20047;-76
2021/06/07 05:54:21;;;;;;;14.57;11.63;;;;;;;22.73;100.00;101231.69;4922793;29;20119;-75
2021/06/07 05:57:08;;;;;;;13.02;11.48;;;;;;;22.97;100.00;101232.91;4923939;29;20461;-76
2021/06/07 05:59:54;;;;;;;15.65;10.95;;;;;;;22.94;100.00;101225.03;4931681;29;20096;-74
2021/06/07 06:02:40;;;;;;;16.30;11.50;;;;;;;23.07;100.00;101226.03;4935537;29;20047;-75
2021/06/07 06:05:26;;;;;;;11.18;9.10;;;;;;;22.98;100.00;101233.72;4937737;29;20063;-75
2021/06/07 06:08:12;;;;;;;12.88;9.18;;;;;;;23.06;100.00;101228.78;4915789;29;20043;-76
2021/06/07 06:10:57;;;;;;;13.55;9.65;;;;;;;22.67;100.00;101232.03;4925033;29;20035;-76
2021/06/07 06:13:43;;;;;;;17.65;9.55;;;;;;;23.16;100.00;101232.63;4923688;29;20056;-76
2021/06/07 06:16:29;;;;;;;17.15;10.32;;;;;;;22.89;100.00;101232.50;4922698;29;20028;-75
2021/06/07 06:19:15;;;;;;;12.75;9.90;;;;;;;23.18;100.00;101239.59;4922197;29;20474;-75
2021/06/07 06:22:03;;;;;;;16.95;10.60;;;;;;;23.34;100.00;101229.72;4921272;29;20055;-75
2021/06/07 06:24:49;;;;;;;12.15;8.95;;;;;;;23.47;100.00;101236.97;4920755;29;20043;-75
2021/06/07 06:27:36;;;;;;;10.57;7.95;;;;;;;23.56;100.00;101234.59;4920411;29;20179;-75
2021/06/07 06:30:25;;;;;;;12.20;8.40;;;;;;;23.52;100.00;101231.22;4906828;29;20024;-77
2021/06/07 06:33:11;;;;;;;11.98;8.65;;;;;;;23.35;100.00;101230.59;4921391;29;20035;-76
2021/06/07 06:35:57;;;;;;;10.60;7.47;;;;;;;23.39;100.00;101235.63;4920768;29;20343;-76
2021/06/07 06:38:43;;;;;;;10.63;8.02;;;;;;;23.85;100.00;101232.72;4921658;29;20345;-76
2021/06/07 06:41:30;;;;;;;13.25;7.72;;;;;;;23.80;100.00;101232.16;4920949;29;20038;-76
2021/06/07 06:44:16;;;;;;;9.48;7.55;;;;;;;23.88;100.00;101233.41;4920942;29;20331;-76
2021/06/07 06:47:03;;;;;;;12.57;8.02;;;;;;;24.42;100.00;101237.00;4919645;29;20095;-75
2021/06/07 06:49:49;;;;;;;18.83;14.13;;;;;;;24.46;100.00;101236.72;4906855;29;20076;-76
2021/06/07 06:52:35;;;;;;;8.55;7.68;;;;;;;24.48;100.00;101231.25;4893391;29;20036;-76
2021/06/07 06:55:20;;;;;;;10.93;7.85;;;;;;;24.35;100.00;101230.34;4918733;29;20036;-76
2021/06/07 06:58:08;;;;;;;13.00;8.63;;;;;;;24.09;100.00;101233.84;4906585;29;20032;-76
2021/06/07 07:00:53;;;;;;;11.95;7.20;;;;;;;24.59;100.00;101226.03;4918949;29;20047;-76
2021/06/07 07:03:39;;;;;;;12.40;7.38;;;;;;;24.71;100.00;101235.97;4920306;29;20454;-76
2021/06/07 07:06:26;;;;;;;8.82;7.43;;;;;;;25.12;100.00;101242.88;4906079;29;20040;-76
2021/06/07 07:09:11;;;;;;;10.15;7.53;;;;;;;25.14;100.00;101242.78;4906751;29;20119;-75
2021/06/07 07:11:57;;;;;;;10.63;7.40;;;;;;;25.25;100.00;101242.88;4920033;29;20146;-76
2021/06/07 07:14:43;;;;;;;11.10;7.10;;;;;;;25.26;100.00;101242.78;4905867;29;20028;-75
2021/06/07 07:17:29;;;;;;;10.38;7.15;;;;;;;25.57;100.00;101246.88;4920084;29;20028;-76
2021/06/07 07:20:15;;;;;;;8.70;6.70;;;;;;;25.71;100.00;101242.25;4919788;29;20035;-75
2021/06/07 07:23:02;;;;;;;15.35;8.48;;;;;;;25.31;100.00;101243.34;4906430;29;20028;-75
2021/06/07 07:25:49;;;;;;;8.98;6.15;;;;;;;25.20;100.00;101248.56;4919095;29;20032;-76
2021/06/07 07:28:35;;;;;;;8.38;5.85;;;;;;;25.76;100.00;101244.63;4905917;29;20550;-76
2021/06/07 07:31:21;;;;;;;9.88;6.28;;;;;;;26.36;100.00;101243.69;4918317;29;20345;-75
2021/06/07 07:34:07;;;;;;;7.05;5.78;;;;;;;26.50;100.00;101245.34;4905915;29;20039;-77
2021/06/07 07:36:53;;;;;;;7.20;5.07;;;;;;;26.55;100.00;101243.16;4905461;29;20421;-76
2021/06/07 07:39:39;;;;;;;12.63;5.55;;;;;;;26.80;100.00;101238.53;4919972;29;20040;-77
2021/06/07 07:42:25;;;;;;;7.15;5.25;;;;;;;25.70;100.00;101242.34;4919050;29;20100;-76
2021/06/07 07:45:16;;;;;;;11.15;5.40;;;;;;;26.17;100.00;101239.81;4918521;29;20373;-75
2021/06/07 07:48:06;;;;;;;8.45;4.93;;;;;;;26.94;100.00;101241.06;4905334;29;20052;-76
2021/06/07 07:50:52;;;;;;;10.77;4.93;;;;;;;26.89;100.00;101239.69;4919331;29;20075;-75
2021/06/07 07:53:37;;;;;;;10.00;5.00;;;;;;;26.86;100.00;101242.59;4918014;29;20035;-75
2021/06/07 07:56:24;;;;;;;6.72;4.32;;;;;;;27.00;100.00;101237.88;4918075;29;20111;-76
2021/06/07 07:59:10;;;;;;;7.15;4.70;;;;;;;27.59;100.00;101241.28;4919049;29;20036;-76
2021/06/07 08:01:56;;;;;;;5.18;4.35;;;;;;;27.44;95.40;101240.66;4919496;29;20101;-76
2021/06/07 08:08:24;;;;;;;5.72;3.88;;;;;;;27.50;91.84;101250.09;4919030;29;20043;-75
2021/06/07 08:11:12;;;;;;;5.55;4.05;;;;;;;27.98;89.74;101243.50;4919497;29;20076;-76
2021/06/07 08:13:57;;;;;;;6.47;4.07;;;;;;;27.65;89.35;101250.72;4904609;29;20095;-75
2021/06/07 08:16:44;;;;;;;4.85;4.07;;;;;;;28.77;86.18;101246.72;4919887;29;20024;-76
2021/06/07 08:20:00;;;;;;;5.30;4.43;;;;;;;29.10;85.53;101251.97;4918794;29;20042;-76
2021/06/07 08:22:47;;;;;;;8.02;4.55;;;;;;;29.13;84.30;101251.69;4936115;23;20134;-76
2021/06/07 08:25:34;;;;;;;4.82;4.32;;;;;;;29.38;82.61;101254.00;4904241;29;20028;-76
2021/06/07 08:28:20;;;;;;;5.30;4.18;;;;;;;29.33;78.43;101250.81;4919135;29;20087;-75
2021/06/07 08:31:09;;;;;;;4.88;4.20;;;;;;;29.10;78.72;101257.38;4919188;29;20036;-76
2021/06/07 08:33:55;;;;;;;5.43;4.22;;;;;;;29.46;75.27;101243.41;4918878;29;20361;-77
2021/06/07 08:36:41;;;;;;;4.22;3.83;;;;;;;28.87;74.86;101244.09;4918404;29;20366;-75
2021/06/07 08:39:27;;;;;;;5.45;3.92;;;;;;;29.39;74.57;101242.22;4919867;29;20028;-75
2021/06/07 08:42:14;;;;;;;4.60;4.20;;;;;;;29.10;78.03;101246.59;4918665;29;20481;-75
2021/06/07 08:45:00;;;;;;;4.97;3.95;;;;;;;29.37;70.98;101252.28;4918559;29;20373;-75
2021/06/07 08:47:47;;;;;;;9.00;3.90;;;;;;;29.70;63.85;101254.75;4918385;29;20522;-75
2021/06/07 08:50:33;;;;;;;7.00;3.92;;;;;;;29.48;66.74;101245.94;4917979;29;20031;-74
2021/06/07 08:53:19;;;;;;;6.28;4.10;;;;;;;29.27;70.09;101237.00;4917750;29;20039;-74
2021/06/07 08:56:05;;;;;;;4.22;3.70;;;;;;;29.88;67.72;101241.44;4919019;29;20020;-74
2021/06/07 08:58:51;;;;;;;4.32;3.70;;;;;;;28.96;69.43;101235.19;4919264;29;20028;-76
2021/06/07 09:02:25;;;;;;;8.25;3.75;;;;;;;29.91;64.96;101241.19;4918058;29;20535;-77
2021/06/07 09:05:13;;;;;;;3.72;3.42;;;;;;;29.89;64.89;101244.00;4899720;29;20381;-75
2021/06/07 09:08:05;;;;;;;3.60;3.25;;;;;;;28.71;69.93;101235.59;4904080;29;20368;-75
2021/06/07 09:10:52;;;;;;;4.63;3.35;;;;;;;29.15;66.42;101230.84;4918097;29;20055;-74
2021/06/07 09:13:38;;;;;;;4.35;3.85;;;;;;;29.53;62.30;101233.75;4917317;29;20035;-75
2021/06/07 09:16:37;;;;;;;5.72;3.30;;;;;;;28.94;62.28;101229.09;4918581;29;20031;-75
2021/06/07 09:19:28;;;;;;;13.98;4.13;;;;;;;29.38;63.81;101227.00;4918348;29;20056;-75
2021/06/07 09:22:23;;;;;;;7.00;4.22;;;;;;;30.32;60.92;101231.06;4918529;29;20036;-75
2021/06/07 09:25:12;;;;;;;4.60;3.70;;;;;;;29.61;60.58;101219.63;4917694;29;20032;-76
2021/06/07 09:28:02;;;;;;;6.57;3.50;;;;;;;29.63;59.33;101226.59;4918509;29;20103;-75
2021/06/07 09:31:08;;;;;;;6.90;4.82;;;;;;;29.52;62.26;101215.84;4903834;29;20123;-75
2021/06/07 09:33:54;;;;;;;7.82;3.80;;;;;;;29.63;65.57;101214.91;4917536;29;20035;-74
2021/06/07 09:36:44;;;;;;;6.97;3.75;;;;;;;29.18;63.87;101218.91;4917821;29;20468;-75
2021/06/07 09:39:30;;;;;;;5.75;3.40;;;;;;;29.10;59.77;101211.50;4918589;29;20060;-76
2021/06/07 09:42:20;;;;;;;4.00;3.50;;;;;;;28.57;63.45;101206.25;4918162;29;20028;-75
2021/06/07 09:45:09;;;;;;;5.50;3.67;;;;;;;29.33;64.60;101209.50;4917663;29;20095;-75
2021/06/07 09:48:08;;;;;;;5.57;3.90;;;;;;;29.85;63.37;101199.34;4918290;29;20076;-76
2021/06/07 09:51:02;;;;;;;4.15;3.75;;;;;;;29.57;60.79;101199.22;4904172;29;20059;-75
2021/06/07 09:54:00;;;;;;;6.32;4.00;;;;;;;29.28;63.39;101193.69;4917106;29;20062;-75
2021/06/07 09:56:56;;;;;;;5.20;4.10;;;;;;;29.18;65.00;101202.72;4905395;29;20127;-75
2021/06/07 09:59:43;;;;;;;4.72;3.70;;;;;;;29.27;60.17;101197.38;4905311;29;20092;-75
2021/06/07 10:02:35;;;;;;;7.50;3.75;;;;;;;29.58;60.10;101191.00;4904775;29;20024;-76
2021/06/07 10:05:32;;;;;;;5.38;3.35;;;;;;;29.05;60.58;101186.72;4908328;29;20024;-75
2021/06/07 10:09:28;;;;;;;4.85;3.60;;;;;;;29.90;57.01;101188.13;4921491;29;20028;-76
2021/06/07 10:12:26;;;;;;;3.78;3.28;;;;;;;29.41;56.20;101186.22;4899533;29;20068;-75
2021/06/07 10:15:14;;;;;;;3.72;3.28;;;;;;;29.51;58.45;101176.31;4921453;29;20472;-76
2021/06/07 10:18:03;;;;;;;5.15;3.28;;;;;;;29.34;57.38;101174.25;4906925;29;20032;-76
2021/06/07 10:20:51;;;;;;;5.05;3.67;;;;;;;29.13;59.53;101176.13;4907224;29;20024;-76
2021/06/07 10:23:38;;;;;;;4.32;3.50;;;;;;;28.99;59.26;101176.44;4920763;29;20127;-76
2021/06/07 10:26:43;;;;;;;3.58;3.17;;;;;;;28.84;61.45;101175.06;4908447;29;20043;-77
2021/06/07 10:29:34;;;;;;;6.07;3.38;;;;;;;28.81;59.39;101167.22;4908507;29;20024;-74
2021/06/07 10:32:28;;;;;;;3.72;3.28;;;;;;;28.96;59.34;101165.91;4906761;29;20031;-74
2021/06/07 10:35:36;;;;;;;3.92;3.20;;;;;;;28.41;59.86;101162.66;4907124;29;20047;-75
2021/06/07 10:38:34;;;;;;;3.80;3.20;;;;;;;28.69;60.14;101153.97;4907137;29;20056;-75
2021/06/07 10:41:21;;;;;;;4.35;3.20;;;;;;;28.87;62.59;101146.97;4907531;29;20047;-74
2021/06/07 10:44:07;;;;;;;5.78;3.58;;;;;;;29.28;56.56;101160.44;4920630;29;20040;-75
2021/06/07 10:47:03;;;;;;;6.93;3.50;;;;;;;29.46;60.14;101151.56;4920679;29;20047;-76
2021/06/07 10:50:03;;;;;;;5.47;3.47;;;;;;;29.53;56.39;101151.88;4920416;29;20025;-74
2021/06/07 10:52:50;;;;;;;6.80;3.78;;;;;;;30.03;56.85;101135.53;4920760;29;20039;-75
2021/06/07 10:55:42;;;;;;;4.60;3.60;;;;;;;29.82;57.48;101134.75;4922493;29;20380;-75
2021/06/07 10:58:28;;;;;;;4.43;3.78;;;;;;;29.85;56.18;101125.56;4921212;29;20040;-76
2021/06/07 11:01:13;;;;;;;9.20;4.00;;;;;;;29.77;58.12;101133.50;4920137;29;20098;-76
2021/06/07 11:04:00;;;;;;;5.82;4.63;;;;;;;30.27;60.63;101124.31;4920431;29;20031;-75
2021/06/07 11:06:50;;;;;;;5.00;4.05;;;;;;;30.02;56.14;101114.88;4919315;29;20032;-75
2021/06/07 11:10:08;;;;;;;4.72;3.63;;;;;;;29.61;56.79;101122.38;4920342;29;20035;-75
2021/06/07 11:12:58;;;;;;;4.00;3.60;;;;;;;29.84;55.67;101108.47;4919414;29;20122;-75
2021/06/07 11:15:55;;;;;;;4.13;3.42;;;;;;;30.00;54.43;101099.81;4919759;29;20024;-75
2021/06/07 11:18:56;;;;;;;5.35;3.85;;;;;;;30.09;55.27;101096.28;4919530;29;20028;-76
2021/06/07 11:21:46;;;;;;;4.40;4.00;;;;;;;30.11;55.03;101091.56;4919915;29;20032;-76
2021/06/07 11:24:35;;;;;;;4.45;3.70;;;;;;;30.32;53.50;101092.28;4919648;29;20047;-76
2021/06/07 11:27:47;;;;;;;4.20;3.50;;;;;;;30.38;54.16;101095.28;4919679;29;20147;-76
2021/06/07 11:30:33;;;;;;;6.20;3.83;;;;;;;30.66;54.58;101088.13;4920679;29;20032;-75
2021/06/07 11:33:19;;;;;;;4.43;3.78;;;;;;;30.53;52.85;101091.13;4906230;29;20024;-75
2021/06/07 11:36:05;;;;;;;3.75;3.30;;;;;;;30.44;53.41;101091.16;4919320;29;20036;-75
2021/06/07 11:39:01;;;;;;;7.13;3.90;;;;;;;30.76;53.97;101089.84;4906217;29;20095;-75
2021/06/07 11:41:55;;;;;;;4.28;3.38;;;;;;;30.78;51.70;101082.41;4907137;29;20054;-75
2021/06/07 11:44:44;;;;;;;3.92;3.33;;;;;;;29.84;54.61;101083.28;4908362;29;20044;-76
2021/06/07 11:47:36;;;;;;;4.47;3.40;;;;;;;30.46;53.34;101076.47;4919970;29;20060;-75
2021/06/07 11:50:28;;;;;;;4.70;3.58;;;;;;;30.94;53.48;101082.66;4905503;29;20034;-75
2021/06/07 11:53:17;;;;;;;4.68;3.53;;;;;;;30.71;53.74;101075.91;4905656;29;20056;-75
2021/06/07 11:56:04;;;;;;;4.65;3.30;;;;;;;30.71;52.79;101073.19;4905102;29;20027;-75
2021/06/07 11:58:51;;;;;;;6.10;3.53;;;;;;;31.10;52.93;101071.22;4919294;29;20489;-75
2021/06/07 12:01:37;;;;;;;4.50;3.50;;;;;;;30.93;51.88;101075.53;4919812;29;20032;-75
2021/06/07 12:04:27;;;;;;;4.60;3.50;;;;;;;30.62;54.61;101065.91;4918810;29;20445;-75
2021/06/07 12:07:22;;;;;;;5.07;3.40;;;;;;;30.62;53.29;101068.59;4918954;29;20398;-75
2021/06/07 12:10:12;;;;;;;4.68;3.70;;;;;;;30.90;52.53;101065.00;4919646;29;20039;-75
2021/06/07 12:13:26;;;;;;;5.60;3.40;;;;;;;30.96;50.01;101064.41;4918445;29;20414;-75
2021/06/07 12:16:16;;;;;;;5.20;3.67;;;;;;;31.35;51.77;101052.41;4919576;29;20377;-75
2021/06/07 12:19:10;;;;;;;3.45;3.15;;;;;;;31.15;49.72;101058.91;4918122;29;20397;-75
2021/06/07 12:21:56;;;;;;;6.53;3.90;;;;;;;30.63;52.80;101051.41;4919003;29;20032;-75
2021/06/07 12:28:43;;;;;;;4.32;3.63;;;;;;;31.20;50.29;101051.19;4919594;29;20070;-76
2021/06/07 12:31:24;;;;;;;5.30;3.70;;;;;;;30.88;50.64;101058.91;4919085;29;20082;-76
2021/06/07 12:34:09;;;;;;;6.05;3.97;;;;;;;31.10;50.14;101038.72;4918104;29;20032;-76
2021/06/07 12:36:55;;;;;;;5.25;3.30;;;;;;;31.25;48.06;101048.06;4918547;29;20483;-75
2021/06/07 12:39:41;;;;;;;4.97;3.47;;;;;;;30.08;51.12;101054.88;4918515;29;20028;-75
2021/06/07 12:43:17;;;;;;;7.38;3.53;;;;;;;30.89;49.74;101047.06;4917628;29;20032;-78
2021/06/07 12:46:07;;;;;;;5.43;3.80;;;;;;;30.52;49.81;101056.97;4908465;29;20039;-76
2021/06/07 12:48:53;;;;;;;3.88;3.30;;;;;;;30.13;50.21;101049.00;4918574;29;20048;-75
2021/06/07 12:52:02;;;;;;;4.10;3.38;;;;;;;30.63;49.97;101048.69;4921913;29;20067;-76
2021/06/07 12:54:47;;;;;;;4.38;3.83;;;;;;;30.63;51.38;101046.00;4905790;29;20067;-76
2021/06/07 12:57:33;;;;;;;5.13;3.42;;;;;;;30.49;47.97;101046.44;4921088;29;20036;-75